Airport View

Enter AWOS ICAO identifier for current METAR.

ex. KFNL

KLBO 290305Z AUTO 00000KT 10SM CLR 11/06 A3007 RMK AO2

29 Sep 2020 03:19

Frequency: 118.975

Phone: 417-533-3419

Other Area AWOS: KOZS - KTBN - KAIZ - KSGF

TAF KSGF 282320Z 2900/2924 31012KT P6SM BKN080 FM290100 30004KT P6SM FEW080 FM291600 30011G18KT P6SM SCT050 SCT120